Time;durP1;ratioP1;P1;durP2;ratioP2;P2;SDS_P1;SDS_P2;PMS_P1;PMS_P2;Temp;Humidity;BMP_temperature;BMP_pressure;BME280_temperature;BME280_humidity;BME280_pressure;Samples;Min_cycle;Max_cycle;Signal;HPM_P1;HPM_P2
2023/11/24 00:00:02;;;;;;;22.90;3.17;;;;;;;;;;5040818;28;20029;-78
2023/11/24 00:02:28;;;;;;;31.00;4.40;;;;;;;;;;5046575;28;20077;-76
2023/11/24 00:04:54;;;;;;;28.40;4.13;;;;;;;;;;5037875;28;20025;-76
2023/11/24 00:07:21;;;;;;;35.57;4.70;;;;;;;;;;5045767;28;20044;-75
2023/11/24 00:09:47;;;;;;;27.80;4.27;;;;;;;;;;5040255;28;20006;-76
2023/11/24 00:12:13;;;;;;;32.17;4.37;;;;;;;;;;5041325;28;20029;-78
2023/11/24 00:14:39;;;;;;;23.23;3.47;;;;;;;;;;5037717;28;20002;-79
2023/11/24 00:17:08;;;;;;;30.43;4.10;;;;;;;;;;5036784;28;20028;-77
2023/11/24 00:19:35;;;;;;;28.50;4.77;;;;;;;;;;5021563;28;20032;-77
2023/11/24 00:22:01;;;;;;;23.63;4.43;;;;;;;;;;5035285;28;20041;-77
2023/11/24 00:24:30;;;;;;;26.37;4.77;;;;;;;;;;5036126;28;20041;-77
2023/11/24 00:26:58;;;;;;;29.20;4.97;;;;;;;;;;5035794;28;20101;-77
2023/11/24 00:29:31;;;;;;;30.43;3.87;;;;;;;;;;5031789;28;20021;-77
2023/11/24 00:35:17;;;;;;;29.13;6.03;;;;;;;;;;5053255;28;20052;-77
2023/11/24 00:37:45;;;;;;;20.73;3.05;;;;;;;;;;5051929;28;20045;-78
2023/11/24 00:40:13;;;;;;;26.10;4.87;;;;;;;;;;5033046;28;20033;-77
2023/11/24 00:42:40;;;;;;;21.53;5.00;;;;;;;;;;5034395;28;20041;-77
2023/11/24 00:45:07;;;;;;;32.50;4.97;;;;;;;;;;5046733;28;20025;-77
2023/11/24 00:47:33;;;;;;;21.97;4.23;;;;;;;;;;5033241;28;20025;-80
2023/11/24 00:49:59;;;;;;;27.53;5.17;;;;;;;;;;5033241;28;20052;-78
2023/11/24 00:52:26;;;;;;;25.40;5.30;;;;;;;;;;5030625;28;20033;-79
2023/11/24 00:54:55;;;;;;;22.20;4.40;;;;;;;;;;5032451;28;20088;-77
2023/11/24 00:57:29;;;;;;;39.27;5.47;;;;;;;;;;5032127;28;20033;-77
2023/11/24 01:00:08;;;;;;;;;;;;;;;;;;;;;
2023/11/24 01:02:37;;;;;;;20.80;4.63;;;;;;;;;;5047654;28;20056;-77
2023/11/24 01:05:13;;;;;;;25.00;4.20;;;;;;;;;;5033163;28;20028;-78
2023/11/24 01:07:42;;;;;;;22.70;3.40;;;;;;;;;;5031834;28;20010;-80
2023/11/24 01:10:08;;;;;;;28.53;5.67;;;;;;;;;;5034254;28;20115;-78
2023/11/24 01:12:40;;;;;;;34.97;5.50;;;;;;;;;;5031673;28;20052;-77
2023/11/24 01:15:09;;;;;;;34.10;4.73;;;;;;;;;;5034593;28;20089;-81
2023/11/24 01:17:36;;;;;;;29.93;4.60;;;;;;;;;;5057453;28;20050;-77
2023/11/24 01:20:03;;;;;;;20.40;3.67;;;;;;;;;;5035160;28;20026;-81
2023/11/24 01:22:29;;;;;;;26.23;4.40;;;;;;;;;;5052722;28;20080;-79
2023/11/24 01:24:58;;;;;;;30.47;6.53;;;;;;;;;;5035551;28;20041;-76
2023/11/24 01:27:24;;;;;;;25.73;4.00;;;;;;;;;;5035252;28;20060;-78
2023/11/24 01:29:51;;;;;;;27.50;4.03;;;;;;;;;;5034818;28;20029;-77
2023/11/24 01:32:20;;;;;;;37.03;5.37;;;;;;;;;;5034427;28;20112;-78
2023/11/24 01:34:49;;;;;;;26.10;3.50;;;;;;;;;;5033148;28;21299;-79
2023/11/24 01:37:15;;;;;;;23.97;3.90;;;;;;;;;;5052414;28;20026;-79
2023/11/24 01:39:44;;;;;;;24.20;4.73;;;;;;;;;;5033527;28;20045;-79
2023/11/24 01:42:10;;;;;;;38.53;3.73;;;;;;;;;;5033882;28;20031;-80
2023/11/24 01:44:36;;;;;;;24.70;3.37;;;;;;;;;;5033186;28;20045;-78
2023/11/24 01:47:06;;;;;;;24.97;5.63;;;;;;;;;;5033230;28;20042;-79
2023/11/24 01:49:32;;;;;;;24.87;4.10;;;;;;;;;;5056053;28;20043;-82
2023/11/24 01:51:58;;;;;;;31.80;4.33;;;;;;;;;;5054964;28;20094;-79
2023/11/24 01:54:33;;;;;;;20.23;4.67;;;;;;;;;;5034203;28;20022;-79
2023/11/24 01:57:04;;;;;;;33.50;4.50;;;;;;;;;;5034479;28;20026;-80
2023/11/24 01:59:34;;;;;;;26.77;4.60;;;;;;;;;;5033304;28;20315;-77
2023/11/24 02:02:09;;;;;;;16.53;3.23;;;;;;;;;;5035149;28;20049;-86
2023/11/24 02:04:38;;;;;;;12.73;1.70;;;;;;;;;;5042499;28;20057;-87
2023/11/24 02:07:07;;;;;;;9.87;1.33;;;;;;;;;;5026897;28;20022;-79
2023/11/24 02:09:35;;;;;;;34.20;4.47;;;;;;;;;;5034973;28;20030;-76
2023/11/24 02:12:07;;;;;;;19.57;3.63;;;;;;;;;;5029452;28;20033;-82
2023/11/24 02:14:35;;;;;;;22.10;2.97;;;;;;;;;;5041738;28;20080;-89
2023/11/24 02:17:01;;;;;;;32.33;4.03;;;;;;;;;;5029942;28;20026;-77
2023/11/24 02:19:30;;;;;;;35.77;5.57;;;;;;;;;;5033627;28;20017;-77
2023/11/24 02:21:56;;;;;;;40.10;5.00;;;;;;;;;;5047443;28;20026;-75
2023/11/24 02:24:22;;;;;;;29.90;5.57;;;;;;;;;;5034160;28;20048;-76
2023/11/24 02:26:48;;;;;;;34.50;5.23;;;;;;;;;;5032802;28;20025;-79
2023/11/24 02:29:14;;;;;;;35.73;4.23;;;;;;;;;;5036299;28;20080;-77
2023/11/24 02:31:40;;;;;;;44.73;5.73;;;;;;;;;;5034699;28;20021;-79
2023/11/24 02:34:07;;;;;;;30.93;4.07;;;;;;;;;;5052514;28;20081;-78
2023/11/24 02:36:36;;;;;;;33.97;5.10;;;;;;;;;;5035725;28;20030;-78
2023/11/24 02:39:03;;;;;;;42.47;5.03;;;;;;;;;;5034440;28;20056;-79
2023/11/24 02:41:30;;;;;;;30.27;4.83;;;;;;;;;;5036360;28;20037;-77
2023/11/24 02:43:59;;;;;;;33.20;4.07;;;;;;;;;;5033134;28;20063;-78
2023/11/24 02:46:25;;;;;;;22.80;4.00;;;;;;;;;;5048014;28;20048;-80
2023/11/24 02:48:51;;;;;;;31.60;4.47;;;;;;;;;;5036362;28;20030;-80
2023/11/24 02:51:18;;;;;;;33.43;5.07;;;;;;;;;;5035989;28;20048;-77
2023/11/24 02:53:45;;;;;;;44.23;4.97;;;;;;;;;;5051603;28;20018;-79
2023/11/24 02:56:11;;;;;;;27.37;3.70;;;;;;;;;;5034017;28;20053;-79
2023/11/24 02:58:37;;;;;;;30.77;4.03;;;;;;;;;;5034285;28;20047;-77
2023/11/24 03:01:05;;;;;;;32.83;4.20;;;;;;;;;;5047754;28;20025;-79
2023/11/24 03:03:34;;;;;;;43.70;5.10;;;;;;;;;;5030289;28;20033;-78
2023/11/24 03:06:06;;;;;;;18.40;2.90;;;;;;;;;;5027954;28;20060;-79
2023/11/24 03:08:32;;;;;;;26.38;3.83;;;;;;;;;;5030932;28;20029;-78
2023/11/24 03:11:00;;;;;;;25.30;4.23;;;;;;;;;;5030843;28;20053;-79
2023/11/24 03:13:30;;;;;;;26.50;4.40;;;;;;;;;;5029818;28;20622;-78
2023/11/24 03:15:56;;;;;;;30.47;4.10;;;;;;;;;;5030800;28;20021;-79
2023/11/24 03:18:23;;;;;;;34.13;4.30;;;;;;;;;;5030220;28;20035;-81
2023/11/24 03:20:56;;;;;;;31.90;4.23;;;;;;;;;;5029211;28;20036;-77
2023/11/24 03:23:23;;;;;;;31.43;4.20;;;;;;;;;;5030268;28;21572;-81
2023/11/24 03:25:49;;;;;;;27.27;3.43;;;;;;;;;;5029753;28;20021;-79
2023/11/24 03:28:18;;;;;;;23.43;4.07;;;;;;;;;;5026153;28;20103;-79
2023/11/24 03:30:44;;;;;;;22.93;4.43;;;;;;;;;;5024929;28;20044;-79
2023/11/24 03:33:10;;;;;;;26.27;4.07;;;;;;;;;;5045727;28;20053;-79
2023/11/24 03:35:36;;;;;;;20.13;2.80;;;;;;;;;;5025879;28;20259;-80
2023/11/24 03:38:02;;;;;;;36.53;4.50;;;;;;;;;;5022645;28;20025;-79
2023/11/24 03:40:28;;;;;;;32.00;3.13;;;;;;;;;;5023925;28;20450;-79
2023/11/24 03:42:54;;;;;;;20.63;2.70;;;;;;;;;;5024875;28;20104;-80
2023/11/24 03:45:20;;;;;;;15.57;3.07;;;;;;;;;;5023451;28;20180;-79
2023/11/24 03:47:46;;;;;;;20.30;4.23;;;;;;;;;;5024544;28;20053;-82
2023/11/24 03:50:17;;;;;;;25.80;3.53;;;;;;;;;;5023352;28;20075;-81
2023/11/24 03:52:43;;;;;;;24.73;4.20;;;;;;;;;;5028756;28;20350;-79
2023/11/24 03:55:11;;;;;;;22.97;3.57;;;;;;;;;;5025563;28;20093;-80
2023/11/24 03:57:37;;;;;;;29.17;4.20;;;;;;;;;;5025493;28;20029;-80
2023/11/24 04:00:03;;;;;;;28.13;5.03;;;;;;;;;;5023668;28;20017;-80
2023/11/24 04:02:29;;;;;;;31.90;3.17;;;;;;;;;;5040132;28;20068;-78
2023/11/24 04:04:56;;;;;;;19.43;3.43;;;;;;;;;;5023975;28;20048;-78
2023/11/24 04:07:22;;;;;;;19.70;3.37;;;;;;;;;;5020604;28;20148;-80
2023/11/24 04:09:48;;;;;;;26.83;4.40;;;;;;;;;;5021122;28;20351;-80
2023/11/24 04:12:14;;;;;;;23.33;2.97;;;;;;;;;;5042430;28;20037;-79
2023/11/24 04:14:40;;;;;;;18.57;2.93;;;;;;;;;;5041136;28;20071;-81
2023/11/24 04:17:07;;;;;;;18.30;2.93;;;;;;;;;;5021321;28;20029;-77
2023/11/24 04:19:33;;;;;;;33.70;2.20;;;;;;;;;;5025478;28;20097;-78
2023/11/24 04:21:59;;;;;;;21.20;2.73;;;;;;;;;;5041396;28;20537;-81
2023/11/24 04:24:28;;;;;;;21.53;2.90;;;;;;;;;;5024341;28;20037;-78
2023/11/24 04:26:54;;;;;;;8.63;1.57;;;;;;;;;;5019061;28;20077;-78
2023/11/24 04:29:21;;;;;;;21.93;3.77;;;;;;;;;;5026581;28;20033;-80
2023/11/24 04:31:48;;;;;;;18.37;1.93;;;;;;;;;;5031146;28;20136;-80
2023/11/24 04:34:14;;;;;;;16.47;2.10;;;;;;;;;;5022578;28;20087;-86
2023/11/24 04:36:40;;;;;;;13.13;2.40;;;;;;;;;;5016012;28;20032;-80
2023/11/24 04:39:06;;;;;;;18.10;2.77;;;;;;;;;;5033602;28;20026;-80
2023/11/24 04:41:32;;;;;;;16.03;2.37;;;;;;;;;;5032621;28;20044;-80
2023/11/24 04:43:58;;;;;;;15.33;3.00;;;;;;;;;;5022658;28;20037;-80
2023/11/24 04:46:24;;;;;;;8.73;1.57;;;;;;;;;;5028226;28;20025;-83
2023/11/24 04:48:50;;;;;;;10.30;2.13;;;;;;;;;;5029143;28;20034;-79
2023/11/24 04:51:16;;;;;;;16.93;1.97;;;;;;;;;;5028157;28;20120;-83
2023/11/24 04:53:42;;;;;;;14.97;2.77;;;;;;;;;;5023761;28;20018;-80
2023/11/24 04:56:08;;;;;;;17.43;3.27;;;;;;;;;;5031032;28;20111;-78
2023/11/24 04:58:35;;;;;;;13.37;1.97;;;;;;;;;;5028482;28;20053;-82
2023/11/24 05:01:01;;;;;;;17.77;2.83;;;;;;;;;;5028380;28;20468;-81
2023/11/24 05:03:27;;;;;;;13.77;3.53;;;;;;;;;;5029503;28;20600;-81
2023/11/24 05:05:53;;;;;;;16.30;2.47;;;;;;;;;;5045989;28;20018;-80
2023/11/24 05:08:19;;;;;;;14.37;2.70;;;;;;;;;;5031355;28;20040;-80
2023/11/24 05:10:45;;;;;;;11.70;2.50;;;;;;;;;;5028900;28;20029;-82
2023/11/24 05:13:11;;;;;;;12.97;1.47;;;;;;;;;;5046763;28;20040;-86
2023/11/24 05:15:38;;;;;;;15.13;2.60;;;;;;;;;;5024493;28;20089;-80
2023/11/24 05:18:07;;;;;;;14.13;2.73;;;;;;;;;;5030527;28;20021;-81
2023/11/24 05:20:33;;;;;;;15.67;2.90;;;;;;;;;;5031177;28;20024;-80
2023/11/24 05:22:59;;;;;;;13.80;2.73;;;;;;;;;;5029110;28;20030;-80
2023/11/24 05:25:25;;;;;;;13.67;1.70;;;;;;;;;;5027123;28;20052;-80
2023/11/24 05:27:51;;;;;;;8.87;2.20;;;;;;;;;;5031822;28;20037;-81
2023/11/24 05:30:17;;;;;;;13.17;3.17;;;;;;;;;;5027583;28;20442;-81
2023/11/24 05:32:44;;;;;;;7.10;1.43;;;;;;;;;;5033115;28;20044;-81
2023/11/24 05:35:10;;;;;;;13.57;2.53;;;;;;;;;;5029977;28;20022;-80
2023/11/24 05:37:36;;;;;;;11.30;2.00;;;;;;;;;;5030149;28;20036;-81
2023/11/24 05:40:06;;;;;;;19.30;1.90;;;;;;;;;;5027960;28;20033;-81
2023/11/24 05:42:32;;;;;;;6.77;1.60;;;;;;;;;;5046671;28;20497;-82
2023/11/24 05:44:59;;;;;;;10.80;1.53;;;;;;;;;;5031106;28;20026;-82
2023/11/24 05:47:25;;;;;;;7.17;1.67;;;;;;;;;;5034619;28;20033;-81
2023/11/24 05:49:52;;;;;;;11.00;1.70;;;;;;;;;;5035046;28;20025;-80
2023/11/24 05:52:25;;;;;;;8.23;1.90;;;;;;;;;;5030969;28;20033;-80
2023/11/24 05:54:53;;;;;;;26.80;2.37;;;;;;;;;;5051686;28;20059;-81
2023/11/24 05:57:19;;;;;;;13.23;2.10;;;;;;;;;;5033969;28;20089;-81
2023/11/24 05:59:45;;;;;;;16.77;2.40;;;;;;;;;;5029725;28;20036;-82
2023/11/24 06:02:11;;;;;;;12.83;1.83;;;;;;;;;;5052785;28;20030;-81
2023/11/24 06:04:37;;;;;;;5.97;2.03;;;;;;;;;;5025600;28;20093;-81
2023/11/24 06:07:04;;;;;;;12.33;1.90;;;;;;;;;;5026804;28;20030;-82
2023/11/24 06:09:32;;;;;;;13.03;3.07;;;;;;;;;;5038835;28;20029;-80
2023/11/24 06:11:58;;;;;;;11.33;2.23;;;;;;;;;;5035724;28;20045;-81
2023/11/24 06:14:24;;;;;;;13.70;3.37;;;;;;;;;;5021294;28;20029;-81
2023/11/24 06:16:50;;;;;;;9.87;2.20;;;;;;;;;;5028493;28;20060;-81
2023/11/24 06:19:16;;;;;;;8.83;1.70;;;;;;;;;;5028697;28;20040;-78
2023/11/24 06:21:45;;;;;;;18.63;2.93;;;;;;;;;;5046161;28;20047;-79
2023/11/24 06:24:11;;;;;;;14.20;2.70;;;;;;;;;;5027486;28;20043;-80
2023/11/24 06:26:38;;;;;;;12.03;2.43;;;;;;;;;;5029594;28;20101;-81
2023/11/24 06:29:04;;;;;;;12.93;2.43;;;;;;;;;;5044730;28;20045;-80
2023/11/24 06:31:30;;;;;;;16.63;2.07;;;;;;;;;;5029112;28;20048;-80
2023/11/24 06:33:56;;;;;;;15.80;2.43;;;;;;;;;;5048231;28;20017;-80
2023/11/24 06:36:23;;;;;;;10.83;2.20;;;;;;;;;;5049461;28;20033;-81
2023/11/24 06:38:49;;;;;;;12.80;1.77;;;;;;;;;;5030321;28;20057;-79
2023/11/24 06:41:15;;;;;;;16.40;1.93;;;;;;;;;;5027949;28;20029;-81
2023/11/24 06:43:41;;;;;;;15.27;2.37;;;;;;;;;;5048407;28;20041;-78
2023/11/24 06:46:07;;;;;;;15.00;2.37;;;;;;;;;;5030099;28;20025;-80
2023/11/24 06:48:34;;;;;;;9.90;1.93;;;;;;;;;;5027124;28;20026;-80
2023/11/24 06:51:01;;;;;;;17.50;2.23;;;;;;;;;;5031443;28;20059;-79
2023/11/24 06:53:27;;;;;;;15.60;2.13;;;;;;;;;;5028331;28;20028;-79
2023/11/24 06:55:56;;;;;;;11.13;2.33;;;;;;;;;;5032529;28;20381;-81
2023/11/24 06:58:25;;;;;;;9.27;1.23;;;;;;;;;;5030247;28;20036;-83
2023/11/24 07:00:51;;;;;;;18.53;3.23;;;;;;;;;;5028440;28;20137;-79
2023/11/24 07:03:18;;;;;;;10.97;2.20;;;;;;;;;;5029853;28;20033;-79
2023/11/24 07:05:46;;;;;;;17.87;2.67;;;;;;;;;;5021893;28;20078;-85
2023/11/24 07:08:13;;;;;;;13.93;1.67;;;;;;;;;;5024748;28;20099;-78
2023/11/24 07:10:39;;;;;;;8.10;1.70;;;;;;;;;;5024699;28;20089;-82
2023/11/24 07:13:07;;;;;;;12.10;2.17;;;;;;;;;;5020957;28;20049;-83
2023/11/24 07:15:33;;;;;;;11.13;1.57;;;;;;;;;;5043244;28;20096;-82
2023/11/24 07:17:59;;;;;;;11.77;2.93;;;;;;;;;;5031689;28;20037;-78
2023/11/24 07:20:25;;;;;;;16.73;2.70;;;;;;;;;;5030613;28;20041;-80
2023/11/24 07:22:54;;;;;;;18.43;2.40;;;;;;;;;;5024807;28;20088;-79
2023/11/24 07:25:20;;;;;;;11.30;2.23;;;;;;;;;;5032422;28;20052;-77
2023/11/24 07:27:50;;;;;;;20.40;3.27;;;;;;;;;;5031687;28;20056;-79
2023/11/24 07:30:18;;;;;;;10.67;2.10;;;;;;;;;;5028196;28;20037;-81
2023/11/24 07:32:55;;;;;;;10.93;3.97;;;;;;;;;;5031726;28;20044;-78
2023/11/24 07:35:24;;;;;;;12.30;1.47;;;;;;;;;;5031280;28;20030;-86
2023/11/24 07:37:53;;;;;;;17.27;3.30;;;;;;;;;;5027764;28;20077;-77
2023/11/24 07:40:19;;;;;;;11.03;2.40;;;;;;;;;;5030870;28;20013;-80
2023/11/24 07:42:46;;;;;;;11.13;2.30;;;;;;;;;;5027961;28;20033;-82
2023/11/24 07:45:12;;;;;;;19.90;2.80;;;;;;;;;;5030593;28;20029;-78
2023/11/24 07:47:39;;;;;;;25.33;3.93;;;;;;;;;;5031207;28;20029;-77
2023/11/24 07:50:06;;;;;;;12.63;2.80;;;;;;;;;;5026713;28;20339;-78
2023/11/24 07:52:32;;;;;;;22.43;3.37;;;;;;;;;;5035044;28;20135;-76
2023/11/24 07:54:58;;;;;;;18.80;4.13;;;;;;;;;;5046340;28;20033;-86
2023/11/24 07:57:26;;;;;;;8.70;2.00;;;;;;;;;;5022372;28;20111;-83
2023/11/24 07:59:52;;;;;;;18.70;3.03;;;;;;;;;;5022531;28;20033;-82
2023/11/24 08:02:18;;;;;;;13.30;2.43;;;;;;;;;;5022032;28;20038;-85
2023/11/24 08:04:45;;;;;;;11.67;2.10;;;;;;;;;;5019798;28;20965;-85
2023/11/24 08:07:11;;;;;;;12.37;1.67;;;;;;;;;;5015109;28;20064;-86
2023/11/24 08:09:37;;;;;;;8.63;1.40;;;;;;;;;;5018336;28;20025;-81
2023/11/24 08:12:08;;;;;;;8.43;1.20;;;;;;;;;;5021058;28;20029;-86
2023/11/24 08:14:34;;;;;;;5.43;0.80;;;;;;;;;;5038454;28;20026;-85
2023/11/24 08:17:00;;;;;;;9.90;1.20;;;;;;;;;;5020052;28;20029;-87
2023/11/24 08:19:26;;;;;;;10.47;1.40;;;;;;;;;;5024089;28;20035;-84
2023/11/24 08:21:53;;;;;;;11.77;1.20;;;;;;;;;;5041076;28;20037;-86
2023/11/24 08:24:19;;;;;;;9.73;1.37;;;;;;;;;;5018089;28;20064;-85
2023/11/24 08:26:45;;;;;;;7.13;1.10;;;;;;;;;;5020118;28;20045;-86
2023/11/24 08:29:12;;;;;;;10.93;1.40;;;;;;;;;;5022781;28;20041;-84
2023/11/24 08:31:40;;;;;;;11.43;1.33;;;;;;;;;;5020732;28;20048;-83
2023/11/24 08:34:08;;;;;;;6.50;1.37;;;;;;;;;;5020369;28;20021;-87
2023/11/24 08:36:34;;;;;;;7.63;1.43;;;;;;;;;;5015940;28;20037;-83
2023/11/24 08:39:03;;;;;;;4.70;1.20;;;;;;;;;;5020952;28;20029;-81
2023/11/24 08:41:29;;;;;;;7.17;1.10;;;;;;;;;;5025016;28;20095;-80
2023/11/24 08:43:56;;;;;;;6.23;1.10;;;;;;;;;;5025218;28;20142;-80
2023/11/24 08:46:24;;;;;;;6.43;1.93;;;;;;;;;;5042283;28;20033;-84
2023/11/24 08:48:50;;;;;;;6.40;1.73;;;;;;;;;;5042020;28;20056;-80
2023/11/24 08:51:18;;;;;;;6.33;0.87;;;;;;;;;;5045729;28;20033;-80
2023/11/24 08:53:44;;;;;;;6.60;1.17;;;;;;;;;;5018750;28;20515;-80
2023/11/24 08:56:10;;;;;;;7.73;1.67;;;;;;;;;;5039650;28;20361;-82
2023/11/24 08:58:39;;;;;;;18.37;2.33;;;;;;;;;;5021863;28;20041;-86
2023/11/24 09:01:06;;;;;;;8.07;1.40;;;;;;;;;;5020855;28;20033;-81
2023/11/24 09:03:32;;;;;;;5.47;1.30;;;;;;;;;;5028274;28;20044;-80
2023/11/24 09:05:58;;;;;;;6.93;1.13;;;;;;;;;;5040527;28;20022;-86
2023/11/24 09:08:25;;;;;;;19.73;2.70;;;;;;;;;;5019449;28;20013;-86
2023/11/24 09:10:51;;;;;;;7.77;1.90;;;;;;;;;;5019813;28;20029;-84
2023/11/24 09:13:19;;;;;;;7.93;1.67;;;;;;;;;;5014428;28;20025;-86
2023/11/24 09:15:45;;;;;;;9.73;1.53;;;;;;;;;;5019270;28;20082;-86
2023/11/24 09:18:11;;;;;;;15.53;1.73;;;;;;;;;;5036408;28;20021;-86
2023/11/24 09:20:37;;;;;;;11.80;1.83;;;;;;;;;;5021749;28;20048;-81
2023/11/24 09:23:06;;;;;;;14.40;1.80;;;;;;;;;;5020585;28;20059;-81
2023/11/24 09:25:33;;;;;;;11.07;2.00;;;;;;;;;;5020993;28;20030;-86
2023/11/24 09:27:59;;;;;;;11.97;1.50;;;;;;;;;;5017531;28;20040;-84
2023/11/24 09:30:25;;;;;;;10.13;1.20;;;;;;;;;;5031677;28;20044;-83
2023/11/24 09:32:54;;;;;;;9.17;1.73;;;;;;;;;;5036111;28;20038;-82
2023/11/24 09:35:21;;;;;;;10.73;1.70;;;;;;;;;;5041026;28;20021;-86
2023/11/24 09:37:47;;;;;;;11.57;1.77;;;;;;;;;;5018007;28;20037;-83
2023/11/24 09:40:16;;;;;;;10.03;0.90;;;;;;;;;;5013407;28;20362;-81
2023/11/24 09:42:45;;;;;;;5.83;1.30;;;;;;;;;;5016905;28;20072;-83
2023/11/24 09:45:15;;;;;;;9.87;1.73;;;;;;;;;;5019791;28;20037;-84
2023/11/24 09:47:52;;;;;;;6.63;1.17;;;;;;;;;;5021860;28;20042;-84
2023/11/24 09:50:25;;;;;;;7.17;2.20;;;;;;;;;;5041722;28;20037;-84
2023/11/24 09:52:51;;;;;;;5.33;1.60;;;;;;;;;;5015875;28;20039;-84
2023/11/24 09:55:18;;;;;;;11.23;1.80;;;;;;;;;;5023695;28;20100;-80
2023/11/24 09:57:45;;;;;;;8.27;1.20;;;;;;;;;;5037315;28;20461;-85
2023/11/24 10:00:11;;;;;;;8.33;1.23;;;;;;;;;;5019883;28;20044;-83
2023/11/24 10:02:39;;;;;;;3.17;0.90;;;;;;;;;;5014311;28;20045;-82
2023/11/24 10:05:07;;;;;;;11.67;1.40;;;;;;;;;;5037198;28;20032;-83
2023/11/24 10:07:34;;;;;;;4.30;1.23;;;;;;;;;;5034458;28;20053;-80
2023/11/24 10:10:00;;;;;;;7.43;1.20;;;;;;;;;;5017861;28;20570;-83
2023/11/24 10:12:26;;;;;;;3.43;0.83;;;;;;;;;;5021979;28;20029;-83
2023/11/24 10:14:54;;;;;;;6.17;1.03;;;;;;;;;;5020461;28;20025;-86
2023/11/24 10:17:23;;;;;;;7.77;0.90;;;;;;;;;;5035208;28;20057;-82
2023/11/24 10:19:49;;;;;;;11.20;1.73;;;;;;;;;;5018151;28;20442;-87
2023/11/24 10:22:19;;;;;;;8.27;1.13;;;;;;;;;;5035364;28;20107;-84
2023/11/24 10:24:45;;;;;;;4.43;1.03;;;;;;;;;;5016960;28;20040;-86
2023/11/24 10:27:21;;;;;;;5.90;0.67;;;;;;;;;;5020552;28;20060;-80
2023/11/24 10:29:48;;;;;;;10.23;1.33;;;;;;;;;;5018506;28;20048;-84
2023/11/24 10:32:15;;;;;;;7.73;2.23;;;;;;;;;;5015078;28;20053;-81
2023/11/24 10:34:42;;;;;;;4.07;0.77;;;;;;;;;;5012988;28;20060;-83
2023/11/24 10:37:13;;;;;;;10.60;1.70;;;10.10;99.90;;;;;;5019527;28;21858;-83
2023/11/24 10:39:43;;;;;;;6.60;1.37;;;6.40;99.90;;;;;;5018150;28;20033;-82
2023/11/24 10:42:10;;;;;;;4.23;0.87;;;6.20;99.90;;;;;;5017301;28;20116;-83
2023/11/24 10:44:40;;;;;;;6.07;1.27;;;6.10;99.90;;;;;;5039687;28;20041;-89
2023/11/24 10:47:11;;;;;;;7.70;1.43;;;6.10;99.90;;;;;;5017911;28;20533;-83
2023/11/24 10:49:42;;;;;;;6.77;1.03;;;6.00;99.90;;;;;;5014750;28;20026;-83
2023/11/24 10:52:22;;;;;;;13.10;1.73;;;6.00;99.90;;;;;;5021097;28;20495;-87
2023/11/24 10:54:56;;;;;;;4.47;0.60;;;6.00;99.90;;;;;;5006636;28;20064;-85
2023/11/24 10:57:23;;;;;;;2.57;0.47;;;5.80;99.90;;;;;;5017711;28;20030;-91
2023/11/24 10:59:50;;;;;;;2.47;0.63;;;5.60;99.90;;;;;;5009007;28;20086;-88
2023/11/24 11:02:16;;;;;;;3.97;0.60;;;5.30;99.90;;;;;;5027224;28;20025;-89
2023/11/24 11:05:00;;;;;;;5.27;1.13;;;5.30;99.90;;;;;;5027246;28;20107;-87
2023/11/24 11:07:52;;;;;;;5.17;1.00;;;5.50;99.90;;;;;;5026023;28;20025;-89
2023/11/24 11:10:28;;;;;;;7.22;1.75;;;5.50;99.90;;;;;;5039968;28;20025;-87
2023/11/24 11:12:56;;;;;;;5.03;1.20;;;5.60;99.90;;;;;;5016984;28;20092;-87
2023/11/24 11:15:35;;;;;;;;;;;;;;;;;;;;;
2023/11/24 11:18:14;;;;;;;5.00;1.00;;;5.70;99.90;;;;;;5045277;28;20146;-88
2023/11/24 11:20:44;;;;;;;4.70;1.30;;;5.80;99.90;;;;;;5024024;28;20053;-86
2023/11/24 11:23:15;;;;;;;3.00;1.17;;;5.80;99.90;;;;;;5007627;28;20092;-89
2023/11/24 11:25:53;;;;;;;9.57;1.33;;;5.80;99.90;;;;;;5025714;28;20031;-87
2023/11/24 11:28:41;;;;;;;3.67;1.17;;;6.00;99.90;;;;;;5037067;28;20040;-81
2023/11/24 11:31:27;;;;;;;8.83;1.07;;;5.90;99.90;;;;;;5033390;28;20030;-88
2023/11/24 11:34:05;;;;;;;4.03;0.87;;;6.00;99.90;;;;;;5028231;28;20022;-88
2023/11/24 11:36:33;;;;;;;3.67;0.90;;;6.10;99.90;;;;;;5018606;28;20108;-88
2023/11/24 11:39:09;;;;;;;4.43;0.77;;;6.10;99.90;;;;;;5027069;28;20044;-86
2023/11/24 11:41:41;;;;;;;5.57;1.17;;;6.20;99.90;;;;;;5033320;28;20017;-82
2023/11/24 11:49:54;;;;;;;4.23;0.97;;;6.30;99.90;;;;;;5041119;28;20112;-85
2023/11/24 11:52:28;;;;;;;3.17;0.63;;;6.40;99.90;;;;;;5013842;28;20029;-88
2023/11/24 11:54:56;;;;;;;5.83;0.90;;;6.60;99.90;;;;;;5020913;28;20022;-83
2023/11/24 11:57:22;;;;;;;9.27;0.97;;;6.40;99.90;;;;;;5036132;28;20097;-82
2023/11/24 11:59:49;;;;;;;3.67;0.67;;;6.40;99.90;;;;;;5034648;28;20030;-85
2023/11/24 12:02:22;;;;;;;7.70;0.97;;;6.30;99.90;;;;;;5027499;28;20147;-86
2023/11/24 12:04:49;;;;;;;5.55;1.20;;;6.20;99.90;;;;;;5023608;28;20030;-85
2023/11/24 12:07:15;;;;;;;3.27;1.20;;;6.00;99.90;;;;;;5017066;28;20613;-88
2023/11/24 12:09:41;;;;;;;5.07;0.40;;;5.90;99.90;;;;;;5018502;28;20034;-89
2023/11/24 12:12:12;;;;;;;4.33;0.50;;;5.80;99.90;;;;;;5026178;28;20095;-90
2023/11/24 12:14:41;;;;;;;2.37;0.30;;;5.50;99.90;;;;;;5026512;28;20025;-91
2023/11/24 12:17:12;;;;;;;3.63;0.60;;;5.30;99.90;;;;;;5015834;28;20018;-89
2023/11/24 12:19:39;;;;;;;5.07;0.27;;;5.20;99.90;;;;;;5019883;28;20045;-87
2023/11/24 12:22:06;;;;;;;1.73;0.50;;;5.10;99.90;;;;;;5016782;28;20108;-90
2023/11/24 12:24:34;;;;;;;1.80;0.30;;;5.00;99.90;;;;;;5035627;28;20112;-87
2023/11/24 12:27:01;;;;;;;2.23;0.50;;;4.90;99.90;;;;;;5017790;28;20022;-89
2023/11/24 12:29:29;;;;;;;6.60;0.70;;;4.90;99.90;;;;;;5017908;28;20036;-90
2023/11/24 12:31:55;;;;;;;0.70;0.23;;;4.80;99.90;;;;;;5017475;28;20583;-83
2023/11/24 12:34:22;;;;;;;3.33;0.23;;;4.80;99.90;;;;;;5020439;28;20032;-83
2023/11/24 12:36:55;;;;;;;2.43;0.27;;;4.80;99.90;;;;;;5017342;28;20037;-89
2023/11/24 12:39:34;;;;;;;2.53;0.35;;;4.80;99.90;;;;;;5019445;28;20021;-84
2023/11/24 12:42:00;;;;;;;6.23;0.77;;;4.90;99.90;;;;;;5018288;28;20034;-88
2023/11/24 12:44:36;;;;;;;1.63;0.47;;;5.10;99.90;;;;;;5016883;28;20041;-85
2023/11/24 12:47:13;;;;;;;3.97;0.53;;;5.20;99.90;;;;;;5016591;28;20065;-85
2023/11/24 12:50:05;;;;;;;5.27;0.73;;;5.30;99.90;;;;;;5036097;28;20805;-83
2023/11/24 12:52:33;;;;;;;6.95;1.25;;;5.40;99.90;;;;;;5019313;28;20029;-83
2023/11/24 12:55:01;;;;;;;4.37;0.93;;;5.40;99.90;;;;;;5017928;28;20028;-83
2023/11/24 12:57:27;;;;;;;5.63;0.73;;;5.40;99.90;;;;;;5017973;28;20065;-81
2023/11/24 12:59:56;;;;;;;2.80;0.90;;;5.60;99.90;;;;;;5017815;28;20022;-87
2023/11/24 13:02:22;;;;;;;10.50;0.90;;;5.40;99.90;;;;;;5016387;28;20401;-82
2023/11/24 13:04:48;;;;;;;9.87;1.10;;;5.50;99.90;;;;;;5003274;28;20029;-89
2023/11/24 13:07:17;;;;;;;6.70;2.20;;;5.50;99.90;;;;;;5023459;28;20044;-81
2023/11/24 13:09:46;;;;;;;9.07;1.67;;;5.50;99.90;;;;;;5021101;28;20033;-86
2023/11/24 13:12:14;;;;;;;8.47;2.00;;;5.70;99.90;;;;;;5023039;28;20377;-85
2023/11/24 13:14:42;;;;;;;9.83;2.50;;;5.70;99.90;;;;;;5024040;28;20021;-82
2023/11/24 13:17:08;;;;;;;10.37;1.47;;;5.90;99.90;;;;;;5022214;28;20040;-83
2023/11/24 13:19:34;;;;;;;10.13;1.83;;;6.00;99.90;;;;;;5023232;28;20029;-81
2023/11/24 13:22:01;;;;;;;12.90;1.87;;;6.00;99.90;;;;;;5022209;28;20041;-86
2023/11/24 13:24:28;;;;;;;7.40;1.33;;;6.10;99.90;;;;;;5021733;28;20087;-84
2023/11/24 13:26:56;;;;;;;12.77;2.40;;;6.40;99.90;;;;;;5025565;28;20037;-86
2023/11/24 13:29:23;;;;;;;7.63;1.37;;;6.60;99.90;;;;;;5038315;28;20103;-82
2023/11/24 13:31:51;;;;;;;11.97;1.90;;;6.90;99.90;;;;;;5023503;28;20030;-80
2023/11/24 13:34:17;;;;;;;10.40;1.50;;;7.40;99.90;;;;;;5023395;28;20041;-80
2023/11/24 13:36:46;;;;;;;10.20;1.40;;;7.50;99.90;;;;;;5021828;28;20018;-81
2023/11/24 13:39:14;;;;;;;9.57;1.60;;;7.80;99.90;;;;;;5020814;28;20025;-85
2023/11/24 13:41:42;;;;;;;11.70;1.20;;;7.50;99.90;;;;;;5020629;28;20119;-82
2023/11/24 13:44:11;;;;;;;11.43;1.90;;;7.00;99.90;;;;;;5024086;28;20097;-82
2023/11/24 13:46:42;;;;;;;11.73;2.03;;;6.70;99.90;;;;;;5022001;28;20488;-84
2023/11/24 13:49:11;;;;;;;15.40;2.40;;;6.70;99.90;;;;;;5021740;28;20057;-82
2023/11/24 13:51:36;;;;;;;13.90;2.40;;;6.60;99.90;;;;;;5004465;28;20033;-83
2023/11/24 13:54:05;;;;;;;12.23;1.90;;;6.60;99.90;;;;;;5018126;28;20018;-82
2023/11/24 13:56:31;;;;;;;13.27;1.83;;;6.40;99.90;;;;;;5019274;28;20108;-83
2023/11/24 13:58:57;;;;;;;11.80;1.30;;;6.40;99.90;;;;;;5021804;28;20442;-82
2023/11/24 14:01:25;;;;;;;8.00;1.50;;;6.40;99.90;;;;;;5020839;28;20535;-80
2023/11/24 14:03:51;;;;;;;7.00;1.60;;;6.30;99.90;;;;;;5016889;28;20025;-81
2023/11/24 14:06:18;;;;;;;11.13;2.23;;;6.20;99.90;;;;;;5019916;28;20056;-83
2023/11/24 14:08:44;;;;;;;13.77;1.90;;;6.20;99.90;;;;;;5019617;28;20032;-81
2023/11/24 14:11:11;;;;;;;10.93;1.53;;;6.20;99.90;;;;;;5016999;28;20025;-80
2023/11/24 14:13:37;;;;;;;10.00;1.70;;;6.20;99.90;;;;;;5020133;28;20416;-82
2023/11/24 14:16:04;;;;;;;8.20;1.63;;;6.20;99.90;;;;;;5020657;28;20491;-83
2023/11/24 14:18:32;;;;;;;9.30;1.80;;;6.20;99.90;;;;;;5019917;28;20067;-88